EST,Max TemperatureF,Mean TemperatureF,Min TemperatureF,Max Dew PointF,MeanDew PointF,Min DewpointF,Max Humidity, Mean Humidity, Min Humidity, Max Sea Level PressureIn, Mean Sea Level PressureIn, Min Sea Level PressureIn, Max VisibilityMiles, Mean VisibilityMiles, Min VisibilityMiles, Max Wind SpeedMPH, Mean Wind SpeedMPH, Max Gust SpeedMPH,PrecipitationIn, CloudCover, Events, WindDirDegrees
2011-11-1,46,40,34,32,30,27,89,71,46,30.38,30.35,30.32,,,,9,2,,0.00,,,172
2011-11-2,52,40,30,33,31,27,92,72,48,30.36,30.27,30.15,,,,8,2,,0.00,,,170
2011-11-3,50,40,30,40,36,31,100,85,68,30.12,29.94,29.82,,,,12,4,22,0.00,,,89
2011-11-4,39,36,32,34,27,23,85,74,60,30.18,29.98,29.85,,,,22,11,37,0.00,,,319
2011-11-5,41,34,28,25,23,20,81,67,46,30.42,30.35,30.20,,,,17,12,26,0.00,,,334
2011-11-6,55,41,28,21,16,7,69,43,15,30.39,30.30,30.22,,,,6,0,,0.00,,,-1
2011-11-7,61,49,37,41,26,9,74,43,23,30.21,30.12,30.06,,,,6,1,,0.00,,,190
2011-11-8,57,50,42,41,30,25,71,49,29,30.24,30.16,30.06,,,,9,3,21,0.00,,,310
2011-11-9,55,50,45,46,36,28,100,63,43,30.22,30.15,30.02,,,,9,3,17,0.00,,,145
2011-11-10,54,50,44,54,50,44,100,100,97,30.02,29.83,29.51,,,,10,7,22,0.96,,,142
2011-11-11,41,36,30,41,33,21,100,89,69,29.59,29.41,29.33,,,,22,13,31,0.09,,,311
2011-11-12,41,34,28,30,24,20,76,65,49,30.00,29.84,29.62,,,,10,6,22,0.00,,,219
2011-11-13,48,41,34,44,34,29,100,76,56,30.11,30.00,29.83,,,,8,3,,0.00,,,148
2011-11-14,54,48,42,44,43,42,100,85,69,29.81,29.72,29.64,,,,7,4,,0.04,,,142
2011-11-15,52,46,39,49,38,30,100,75,54,29.91,29.70,29.54,,,,12,4,23,0.01,,,298
2011-11-16,52,44,37,43,37,31,96,76,54,29.94,29.82,29.65,,,,9,2,16,0.00,,,150
2011-11-17,46,38,28,40,26,20,79,65,57,29.75,29.70,29.63,,,,14,7,23,0.00,,,317
2011-11-18,34,29,24,26,20,16,89,72,54,30.25,30.04,29.73,,,,9,5,,0.01,,,320
2011-11-19,43,34,24,23,21,17,81,66,37,30.26,30.17,30.07,,,,7,2,,0.00,,,154
2011-11-20,46,38,28,45,29,22,96,73,59,30.11,29.93,29.78,,,,13,3,28,0.05,,,301
2011-11-21,28,24,19,21,14,11,78,65,47,30.38,30.29,30.12,,,,14,9,26,0.00,,,328
2011-11-22,33,24,15,18,11,5,92,61,33,30.40,30.36,30.30,,,,9,2,,0.00,,,348
2011-11-23,25,22,19,22,18,8,96,85,49,30.27,30.01,29.88,,,,15,9,21,0.56,,,46
2011-11-24,30,24,19,27,22,17,96,88,72,30.07,30.04,29.99,,,,10,3,,0.00,,,337
2011-11-25,43,34,27,36,31,27,100,89,76,30.02,29.94,29.88,,,,5,1,,0.00,,,21
2011-11-26,44,40,35,38,36,30,89,82,71,30.26,30.11,29.91,,,,12,5,16,0.00,,,321
2011-11-27,41,36,34,41,32,25,100,87,70,30.29,30.20,30.02,,,,9,6,18,0.04,,,136
2011-11-28,48,42,35,47,40,32,100,93,79,30.13,30.00,29.92,,,,8,4,,0.04,,,176
2011-11-29,46,38,33,47,38,32,100,95,85,30.15,30.07,29.86,,,,8,5,,0.00,,,143
2011-11-30,57,47,36,57,46,34,100,93,74,29.83,29.59,29.44,,,,15,7,24,0.97,,,164